Time;durP1;ratioP1;P1;durP2;ratioP2;P2;SDS_P1;SDS_P2;PMS_P1;PMS_P2;Temp;Humidity;BMP_temperature;BMP_pressure;BME280_temperature;BME280_humidity;BME280_pressure;Samples;Min_cycle;Max_cycle;Signal;HPM_P1;HPM_P2
2021/08/25 00:02:20;;;;;;;17.05;10.70;;;11.50;99.90;;;;;;5080206;28;20028;-74
2021/08/25 00:04:45;;;;;;;12.82;11.50;;;11.60;99.90;;;;;;5079834;28;20028;-74
2021/08/25 00:07:11;;;;;;;11.40;10.20;;;11.40;99.90;;;;;;5079942;28;20027;-73
2021/08/25 00:09:38;;;;;;;14.38;12.80;;;11.40;99.90;;;;;;5090164;28;20081;-74
2021/08/25 00:12:05;;;;;;;14.30;12.02;;;11.40;99.90;;;;;;5088197;28;20028;-73
2021/08/25 00:14:31;;;;;;;13.60;12.15;;;11.20;99.90;;;;;;5078295;28;20653;-73
2021/08/25 00:16:56;;;;;;;15.90;14.10;;;11.10;99.90;;;;;;5091907;28;20028;-73
2021/08/25 00:19:22;;;;;;;15.98;12.73;;;11.00;99.90;;;;;;5077328;28;20028;-74
2021/08/25 00:21:47;;;;;;;12.75;11.45;;;11.00;99.90;;;;;;5083272;28;20028;-73
2021/08/25 00:24:13;;;;;;;13.07;11.32;;;11.00;99.90;;;;;;5081467;28;20024;-73
2021/08/25 00:26:39;;;;;;;12.70;11.13;;;11.00;99.90;;;;;;5088106;28;20446;-74
2021/08/25 00:29:04;;;;;;;14.65;11.00;;;11.00;99.90;;;;;;5087273;28;20474;-74
2021/08/25 00:31:30;;;;;;;14.60;11.43;;;11.10;99.90;;;;;;5092805;28;20113;-73
2021/08/25 00:33:57;;;;;;;12.18;10.50;;;11.10;99.90;;;;;;5084669;28;20078;-73
2021/08/25 00:36:22;;;;;;;12.05;10.27;;;11.10;99.90;;;;;;5083045;28;20032;-73
2021/08/25 00:38:48;;;;;;;12.48;11.23;;;11.10;99.90;;;;;;5083069;28;20474;-74
2021/08/25 00:41:13;;;;;;;12.85;10.75;;;11.20;99.90;;;;;;5081089;28;20048;-73
2021/08/25 00:43:39;;;;;;;13.15;11.02;;;11.00;99.90;;;;;;5079587;28;20103;-73
2021/08/25 00:46:05;;;;;;;12.27;10.60;;;10.80;99.90;;;;;;5079728;28;20021;-73
2021/08/25 00:48:30;;;;;;;15.30;10.93;;;10.90;99.90;;;;;;5081727;28;20026;-73
2021/08/25 00:50:56;;;;;;;13.25;10.38;;;11.00;99.90;;;;;;5083140;28;20028;-73
2021/08/25 00:53:25;;;;;;;14.38;11.55;;;11.10;99.90;;;;;;5076859;28;20024;-74
2021/08/25 00:55:52;;;;;;;17.45;13.38;;;11.10;99.90;;;;;;5076195;28;20052;-73
2021/08/25 00:58:17;;;;;;;16.02;13.68;;;10.80;99.90;;;;;;5081910;28;20471;-74
2021/08/25 01:00:56;;;;;;;13.82;12.25;;;10.70;99.90;;;;;;5086055;28;20185;-73
2021/08/25 01:03:30;;;;;;;12.15;10.73;;;10.80;99.90;;;;;;5086191;28;20035;-73
2021/08/25 01:05:57;;;;;;;13.52;11.95;;;10.80;99.90;;;;;;5081570;28;20025;-74
2021/08/25 01:08:23;;;;;;;13.07;11.00;;;10.80;99.90;;;;;;5090868;28;20144;-73
2021/08/25 01:10:49;;;;;;;11.63;10.43;;;10.80;99.90;;;;;;5097111;28;20020;-73
2021/08/25 01:13:14;;;;;;;14.52;11.27;;;10.80;99.90;;;;;;5103597;28;20501;-73
2021/08/25 01:15:42;;;;;;;13.30;11.20;;;10.80;99.90;;;;;;5096749;28;20232;-73
2021/08/25 01:18:16;;;;;;;11.70;10.50;;;10.80;99.90;;;;;;5083718;28;20032;-73
2021/08/25 01:20:47;;;;;;;11.20;10.07;;;10.70;99.90;;;;;;5096570;28;20043;-73
2021/08/25 01:23:14;;;;;;;12.23;10.95;;;10.70;99.90;;;;;;5080412;28;20186;-73
2021/08/25 01:25:41;;;;;;;12.50;11.20;;;10.60;99.90;;;;;;5088668;28;20027;-73
2021/08/25 01:28:09;;;;;;;13.35;11.95;;;10.60;99.90;;;;;;5105166;28;20028;-73
2021/08/25 01:30:38;;;;;;;13.93;12.45;;;10.80;99.90;;;;;;5085815;28;20048;-73
2021/08/25 01:33:03;;;;;;;13.95;12.23;;;10.80;99.90;;;;;;5083600;28;20502;-73
2021/08/25 01:35:40;;;;;;;15.07;11.82;;;10.90;99.90;;;;;;5086006;28;20089;-74
2021/08/25 01:38:06;;;;;;;13.88;10.95;;;10.90;99.90;;;;;;5082101;28;20036;-74
2021/08/25 01:40:32;;;;;;;15.75;11.95;;;10.90;99.90;;;;;;5086259;28;20528;-74
2021/08/25 01:42:59;;;;;;;13.18;11.27;;;10.80;99.90;;;;;;5078187;28;20036;-73
2021/08/25 01:45:24;;;;;;;14.57;12.52;;;10.70;99.90;;;;;;5085582;28;20109;-74
2021/08/25 01:47:50;;;;;;;14.13;12.70;;;10.70;99.90;;;;;;5094135;28;20056;-74
2021/08/25 01:50:15;;;;;;;15.18;12.57;;;10.80;99.90;;;;;;5090218;28;20406;-74
2021/08/25 01:52:41;;;;;;;14.35;12.90;;;10.90;99.90;;;;;;5094341;28;20042;-74
2021/08/25 01:55:07;;;;;;;14.70;12.98;;;11.00;99.90;;;;;;5094302;28;20038;-74
2021/08/25 01:57:32;;;;;;;16.60;13.52;;;10.90;99.90;;;;;;5080067;28;20032;-74
2021/08/25 01:59:58;;;;;;;15.65;12.75;;;11.00;99.90;;;;;;5098340;28;20032;-74
2021/08/25 02:02:23;;;;;;;14.38;12.93;;;10.90;99.90;;;;;;5102182;28;20471;-74
2021/08/25 02:04:49;;;;;;;14.65;13.23;;;10.80;99.90;;;;;;5090770;28;20031;-74
2021/08/25 02:07:15;;;;;;;13.27;11.82;;;10.80;99.90;;;;;;5094880;28;20047;-74
2021/08/25 02:09:40;;;;;;;13.68;12.23;;;10.70;99.90;;;;;;5088229;28;20028;-74
2021/08/25 02:12:06;;;;;;;13.70;11.82;;;10.70;99.90;;;;;;5092908;28;20039;-74
2021/08/25 02:14:32;;;;;;;18.00;15.95;;;10.70;99.90;;;;;;5093744;28;20104;-74
2021/08/25 02:16:57;;;;;;;14.70;12.80;;;10.40;99.90;;;;;;5085245;28;20031;-73
2021/08/25 02:19:23;;;;;;;15.00;12.80;;;10.20;99.90;;;;;;5073584;28;20021;-73
2021/08/25 02:21:48;;;;;;;13.70;12.27;;;10.30;99.90;;;;;;5075588;28;20385;-74
2021/08/25 02:24:14;;;;;;;15.70;13.20;;;10.30;99.90;;;;;;5094662;28;20072;-74
2021/08/25 02:26:40;;;;;;;15.73;14.13;;;10.50;99.90;;;;;;5097157;28;20023;-74
2021/08/25 02:29:05;;;;;;;19.38;14.93;;;10.60;99.90;;;;;;5094815;28;20099;-74
2021/08/25 02:31:31;;;;;;;15.55;13.90;;;10.40;99.90;;;;;;5094364;28;20023;-74
2021/08/25 02:33:56;;;;;;;16.42;12.90;;;10.30;99.90;;;;;;5085989;28;20036;-74
2021/08/25 02:36:22;;;;;;;15.18;13.68;;;10.30;99.90;;;;;;5073161;28;20043;-75
2021/08/25 02:38:48;;;;;;;15.48;13.85;;;10.30;99.90;;;;;;5072010;28;20111;-74
2021/08/25 02:41:16;;;;;;;13.80;12.15;;;10.40;99.90;;;;;;5073361;28;20035;-74
2021/08/25 02:43:42;;;;;;;15.63;13.98;;;10.40;99.90;;;;;;5075242;28;20033;-74
2021/08/25 02:46:08;;;;;;;14.93;13.43;;;10.50;99.90;;;;;;5100941;28;20371;-75
2021/08/25 02:48:34;;;;;;;15.80;14.10;;;10.40;99.90;;;;;;5083874;28;20024;-74
2021/08/25 02:51:00;;;;;;;16.20;13.05;;;10.30;99.90;;;;;;5080553;28;20094;-75
2021/08/25 02:53:26;;;;;;;15.65;13.75;;;10.30;99.90;;;;;;5107457;28;20111;-75
2021/08/25 02:55:51;;;;;;;16.17;13.80;;;10.30;99.90;;;;;;5072920;28;20108;-74
2021/08/25 02:58:17;;;;;;;18.40;16.00;;;10.40;99.90;;;;;;5073067;28;20408;-74
2021/08/25 03:00:43;;;;;;;15.45;13.73;;;10.40;99.90;;;;;;5086799;28;20508;-74
2021/08/25 03:03:08;;;;;;;16.35;14.50;;;10.50;99.90;;;;;;5082740;28;20036;-74
2021/08/25 03:05:34;;;;;;;15.32;13.65;;;10.50;99.90;;;;;;5072581;28;20036;-75
2021/08/25 03:07:59;;;;;;;18.90;16.73;;;10.50;99.90;;;;;;5072816;28;20024;-74
2021/08/25 03:10:25;;;;;;;19.73;17.65;;;10.60;99.90;;;;;;5071438;28;20048;-75
2021/08/25 03:12:51;;;;;;;17.00;15.20;;;10.50;99.90;;;;;;5072589;28;20017;-74
2021/08/25 03:15:17;;;;;;;16.33;14.63;;;10.40;99.90;;;;;;5089578;28;20028;-74
2021/08/25 03:17:43;;;;;;;19.92;16.38;;;10.50;99.90;;;;;;5098436;28;20032;-73
2021/08/25 03:20:10;;;;;;;19.80;17.38;;;10.40;99.90;;;;;;5071157;28;20035;-73
2021/08/25 03:22:37;;;;;;;22.55;19.10;;;10.40;99.90;;;;;;5081413;28;20028;-74
2021/08/25 03:25:05;;;;;;;19.77;17.60;;;10.30;99.90;;;;;;5079434;28;20059;-75
2021/08/25 03:27:30;;;;;;;20.35;17.85;;;10.20;99.90;;;;;;5092624;28;20031;-75
2021/08/25 03:29:56;;;;;;;17.95;16.15;;;10.40;99.90;;;;;;5091170;28;20017;-75
2021/08/25 03:32:21;;;;;;;20.83;18.63;;;10.30;99.90;;;;;;5093001;28;20497;-74
2021/08/25 03:34:48;;;;;;;21.20;17.55;;;10.30;99.90;;;;;;5102446;28;20111;-74
2021/08/25 03:37:13;;;;;;;18.52;16.02;;;10.30;99.90;;;;;;5101445;28;20019;-74
2021/08/25 03:39:39;;;;;;;18.55;16.63;;;10.40;99.90;;;;;;5083825;28;20032;-73
2021/08/25 03:42:04;;;;;;;17.15;15.13;;;10.50;99.90;;;;;;5072009;28;20051;-73
2021/08/25 03:44:30;;;;;;;20.10;18.00;;;10.40;99.90;;;;;;5071753;28;20445;-73
2021/08/25 03:46:55;;;;;;;20.35;18.17;;;10.30;99.90;;;;;;5071998;28;20517;-73
2021/08/25 03:49:21;;;;;;;21.33;17.77;;;10.30;99.90;;;;;;5072029;28;20020;-73
2021/08/25 03:51:46;;;;;;;20.42;18.35;;;10.30;99.90;;;;;;5071822;28;20085;-74
2021/08/25 03:54:12;;;;;;;21.38;17.40;;;10.30;99.90;;;;;;5078622;28;20017;-74
2021/08/25 03:56:38;;;;;;;22.10;17.63;;;10.30;99.90;;;;;;5091872;28;20028;-74
2021/08/25 03:59:04;;;;;;;24.90;20.50;;;10.30;99.90;;;;;;5071771;28;20025;-74
2021/08/25 04:01:30;;;;;;;20.80;18.55;;;10.00;99.90;;;;;;5071762;28;20115;-74
2021/08/25 04:03:55;;;;;;;20.52;17.70;;;10.00;99.90;;;;;;5071813;28;20553;-73
2021/08/25 04:06:21;;;;;;;23.35;19.63;;;10.10;99.90;;;;;;5071558;28;20063;-73
2021/08/25 04:08:46;;;;;;;20.52;18.38;;;10.10;99.90;;;;;;5076984;28;20024;-75
2021/08/25 04:11:20;;;;;;;21.20;18.58;;;10.20;99.90;;;;;;5103687;28;20103;-74
2021/08/25 04:13:46;;;;;;;20.23;18.13;;;10.20;99.90;;;;;;5072186;28;20021;-74
2021/08/25 04:16:11;;;;;;;17.40;15.40;;;10.20;99.90;;;;;;5090806;28;20134;-75
2021/08/25 04:18:37;;;;;;;19.50;17.20;;;10.20;99.90;;;;;;5071823;28;20028;-75
2021/08/25 04:21:03;;;;;;;22.60;18.63;;;10.30;99.90;;;;;;5093715;28;20100;-74
2021/08/25 04:23:28;;;;;;;20.25;17.92;;;10.20;99.90;;;;;;5097411;28;20027;-75
2021/08/25 04:25:54;;;;;;;20.25;17.95;;;10.20;99.90;;;;;;5095278;28;20434;-76
2021/08/25 04:28:19;;;;;;;18.23;16.00;;;10.30;99.90;;;;;;5076931;28;20027;-75
2021/08/25 04:30:45;;;;;;;18.25;16.20;;;10.20;99.90;;;;;;5095708;28;20119;-76
2021/08/25 04:33:10;;;;;;;22.08;18.67;;;10.20;99.90;;;;;;5090128;28;20021;-75
2021/08/25 04:35:36;;;;;;;21.48;18.42;;;10.20;99.90;;;;;;5079653;28;20047;-75
2021/08/25 04:38:02;;;;;;;17.92;16.08;;;9.90;99.90;;;;;;5075684;28;20290;-75
2021/08/25 04:40:27;;;;;;;20.05;16.38;;;10.00;99.90;;;;;;5074411;28;20020;-75
2021/08/25 04:42:53;;;;;;;16.83;15.13;;;10.00;99.90;;;;;;5096101;28;20028;-76
2021/08/25 04:45:18;;;;;;;17.98;16.13;;;9.90;99.90;;;;;;5105613;28;20485;-75
2021/08/25 04:47:44;;;;;;;17.20;15.50;;;10.00;99.90;;;;;;5087315;28;20657;-75
2021/08/25 04:50:10;;;;;;;20.08;17.67;;;10.00;99.90;;;;;;5075310;28;20024;-75
2021/08/25 04:52:35;;;;;;;19.33;16.67;;;10.10;99.90;;;;;;5075235;28;20032;-75
2021/08/25 04:55:01;;;;;;;19.65;17.15;;;9.80;99.90;;;;;;5075065;28;20409;-73
2021/08/25 04:57:26;;;;;;;18.80;16.52;;;9.70;99.90;;;;;;5074006;28;20021;-74
2021/08/25 04:59:52;;;;;;;18.02;15.10;;;9.80;99.90;;;;;;5074339;28;20046;-74
2021/08/25 05:02:17;;;;;;;17.48;15.57;;;9.90;99.90;;;;;;5095393;28;20043;-74
2021/08/25 05:04:43;;;;;;;16.35;14.60;;;9.90;99.90;;;;;;5085617;28;20398;-75
2021/08/25 05:07:08;;;;;;;16.40;14.65;;;9.80;99.90;;;;;;5075418;28;20024;-75
2021/08/25 05:09:34;;;;;;;17.65;15.75;;;9.90;99.90;;;;;;5096409;28;20024;-75
2021/08/25 05:11:59;;;;;;;17.98;14.55;;;10.00;99.90;;;;;;5103313;28;20535;-75
2021/08/25 05:14:25;;;;;;;16.23;14.38;;;10.00;99.90;;;;;;5101899;28;20023;-76
2021/08/25 05:16:50;;;;;;;16.80;14.13;;;10.10;99.90;;;;;;5088760;28;20036;-75
2021/08/25 05:19:16;;;;;;;15.90;14.05;;;10.20;99.90;;;;;;5074759;28;20025;-75
2021/08/25 05:21:41;;;;;;;16.63;14.93;;;10.10;99.90;;;;;;5076937;28;20028;-76
2021/08/25 05:24:07;;;;;;;18.60;14.63;;;10.30;99.90;;;;;;5093768;28;20111;-75
2021/08/25 05:26:32;;;;;;;16.63;13.70;;;10.30;99.90;;;;;;5074871;28;20081;-75
2021/08/25 05:28:58;;;;;;;19.40;15.63;;;10.40;99.90;;;;;;5083597;28;20474;-75
2021/08/25 05:31:24;;;;;;;21.90;18.80;;;10.40;99.90;;;;;;5099503;28;20107;-76
2021/08/25 05:33:50;;;;;;;22.48;19.70;;;10.40;99.90;;;;;;5108245;28;20026;-75
2021/08/25 05:36:15;;;;;;;15.48;13.45;;;10.40;99.90;;;;;;5082150;28;20028;-76
2021/08/25 05:38:41;;;;;;;20.90;18.35;;;10.50;99.90;;;;;;5094812;28;20031;-74
2021/08/25 05:41:06;;;;;;;17.63;15.25;;;10.60;99.90;;;;;;5075569;28;20028;-75
2021/08/25 05:43:32;;;;;;;18.27;16.35;;;10.70;99.90;;;;;;5089947;28;20055;-75
2021/08/25 05:45:57;;;;;;;17.88;16.08;;;10.90;99.90;;;;;;5104200;28;20463;-74
2021/08/25 05:48:23;;;;;;;17.77;15.95;;;10.90;99.90;;;;;;5104336;28;20023;-74
2021/08/25 05:50:49;;;;;;;18.63;16.25;;;11.00;99.90;;;;;;5100932;28;20485;-75
2021/08/25 05:53:14;;;;;;;18.85;15.50;;;11.00;99.90;;;;;;5081079;28;20028;-74
2021/08/25 05:55:40;;;;;;;16.85;14.88;;;11.10;99.90;;;;;;5073643;28;20089;-73
2021/08/25 05:58:06;;;;;;;15.30;13.77;;;11.20;99.90;;;;;;5091854;28;20500;-74
2021/08/25 06:00:31;;;;;;;16.75;14.65;;;11.30;99.90;;;;;;5099216;28;20497;-75
2021/08/25 06:02:57;;;;;;;16.13;14.43;;;11.10;99.90;;;;;;5105028;28;20103;-74
2021/08/25 06:05:23;;;;;;;15.52;14.02;;;11.00;99.90;;;;;;5096243;28;20486;-73
2021/08/25 06:07:48;;;;;;;14.73;13.25;;;10.90;99.90;;;;;;5074053;28;20031;-73
2021/08/25 06:10:14;;;;;;;14.50;13.05;;;11.00;99.90;;;;;;5074428;28;20502;-75
2021/08/25 06:12:39;;;;;;;14.70;13.23;;;11.10;99.90;;;;;;5073869;28;20111;-74
2021/08/25 06:15:06;;;;;;;14.52;13.02;;;11.00;99.90;;;;;;5089432;28;20095;-74
2021/08/25 06:17:32;;;;;;;13.10;11.80;;;11.10;99.90;;;;;;5101680;28;20028;-74
2021/08/25 06:19:59;;;;;;;13.15;11.85;;;11.30;99.90;;;;;;5075107;28;20509;-74
2021/08/25 06:22:24;;;;;;;14.63;13.05;;;11.40;99.90;;;;;;5081788;28;20123;-74
2021/08/25 06:24:50;;;;;;;14.48;12.95;;;11.70;99.90;;;;;;5094002;28;20048;-74
2021/08/25 06:27:15;;;;;;;13.48;12.10;;;11.30;99.90;;;;;;5094290;28;20017;-74
2021/08/25 06:29:41;;;;;;;12.85;11.48;;;11.40;99.90;;;;;;5092899;28;20024;-74
2021/08/25 06:32:07;;;;;;;12.75;11.38;;;11.70;99.90;;;;;;5082182;28;20104;-74
2021/08/25 06:34:34;;;;;;;12.48;11.18;;;12.00;99.90;;;;;;5086995;28;20020;-74
2021/08/25 06:36:59;;;;;;;13.20;11.80;;;11.80;99.90;;;;;;5085757;28;20591;-74
2021/08/25 06:39:25;;;;;;;14.43;11.40;;;11.80;99.90;;;;;;5080271;28;20031;-74
2021/08/25 06:41:50;;;;;;;12.40;11.23;;;11.80;99.90;;;;;;5082505;28;20082;-74
2021/08/25 06:44:16;;;;;;;12.15;10.95;;;11.70;99.90;;;;;;5088909;28;20020;-74
2021/08/25 06:46:42;;;;;;;14.75;10.93;;;12.00;99.90;;;;;;5082321;28;20028;-74
2021/08/25 06:49:07;;;;;;;11.43;10.30;;;12.10;99.90;;;;;;5078165;28;20117;-74
2021/08/25 06:51:33;;;;;;;11.60;10.40;;;12.20;99.90;;;;;;5081107;28;20020;-75
2021/08/25 06:53:59;;;;;;;11.88;10.68;;;12.30;99.90;;;;;;5087179;28;20036;-75
2021/08/25 06:56:25;;;;;;;12.23;10.82;;;12.40;99.90;;;;;;5083314;28;20039;-74
2021/08/25 06:58:51;;;;;;;11.82;10.63;;;12.40;99.90;;;;;;5078488;28;20020;-74
2021/08/25 07:01:17;;;;;;;13.27;10.75;;;12.50;99.90;;;;;;5082774;28;20028;-74
2021/08/25 07:03:42;;;;;;;11.68;10.52;;;12.60;99.90;;;;;;5087571;28;20028;-74
2021/08/25 07:06:08;;;;;;;11.65;10.45;;;12.70;99.90;;;;;;5083651;28;20082;-74
2021/08/25 07:08:34;;;;;;;11.18;10.05;;;12.80;99.90;;;;;;5073955;28;20020;-75
2021/08/25 07:10:59;;;;;;;11.40;10.15;;;12.90;99.90;;;;;;5083499;28;20055;-74
2021/08/25 07:13:25;;;;;;;11.55;10.35;;;12.80;99.90;;;;;;5092728;28;20035;-74
2021/08/25 07:15:51;;;;;;;11.77;9.73;;;12.90;99.90;;;;;;5092191;28;20024;-74
2021/08/25 07:18:16;;;;;;;10.30;9.23;;;13.10;99.90;;;;;;5079267;28;20108;-75
2021/08/25 07:20:42;;;;;;;11.15;10.10;;;13.20;99.90;;;;;;5091697;28;20024;-75
2021/08/25 07:23:07;;;;;;;11.65;10.45;;;13.10;99.90;;;;;;5079390;28;20445;-76
2021/08/25 07:25:33;;;;;;;11.10;9.48;;;13.20;99.90;;;;;;5084646;28;20120;-72
2021/08/25 07:27:58;;;;;;;10.98;9.88;;;13.40;99.90;;;;;;5079347;28;20059;-75
2021/08/25 07:30:24;;;;;;;10.60;9.60;;;13.40;99.90;;;;;;5091529;28;20020;-75
2021/08/25 07:32:49;;;;;;;10.57;9.02;;;13.50;99.90;;;;;;5078960;28;20107;-75
2021/08/25 07:35:15;;;;;;;10.77;9.38;;;13.60;99.90;;;;;;5081648;28;20046;-75
2021/08/25 07:37:40;;;;;;;10.38;9.27;;;13.80;99.90;;;;;;5085685;28;20086;-75
2021/08/25 07:40:07;;;;;;;10.18;9.18;;;13.90;99.90;;;;;;5083217;28;20024;-75
2021/08/25 07:42:33;;;;;;;12.52;8.88;;;13.90;99.90;;;;;;5079357;28;20470;-75
2021/08/25 07:44:59;;;;;;;9.43;8.13;;;14.00;99.90;;;;;;5081693;28;20043;-74
2021/08/25 07:47:24;;;;;;;9.48;8.48;;;14.10;99.90;;;;;;5076264;28;20023;-74
2021/08/25 07:49:50;;;;;;;11.27;8.82;;;14.20;99.90;;;;;;5080444;28;20020;-74
2021/08/25 07:52:15;;;;;;;8.25;7.40;;;14.30;99.90;;;;;;5085830;28;20032;-75
2021/08/25 07:54:41;;;;;;;9.52;8.23;;;14.30;99.90;;;;;;5081149;28;20115;-75
2021/08/25 07:57:06;;;;;;;10.00;8.13;;;14.50;99.90;;;;;;5075308;28;20061;-72
2021/08/25 07:59:32;;;;;;;8.63;7.65;;;14.50;99.90;;;;;;5072166;28;20024;-74
2021/08/25 08:01:58;;;;;;;7.72;6.90;;;14.70;99.90;;;;;;5089247;28;20482;-74
2021/08/25 08:04:24;;;;;;;9.30;7.65;;;14.80;99.90;;;;;;5103762;28;20019;-74
2021/08/25 08:06:49;;;;;;;10.18;7.40;;;14.80;99.90;;;;;;5089156;28;20032;-74
2021/08/25 08:09:15;;;;;;;8.48;7.30;;;14.90;99.90;;;;;;5079776;28;20020;-73
2021/08/25 08:11:41;;;;;;;9.60;6.97;;;15.00;99.90;;;;;;5090344;28;20034;-74
2021/08/25 08:14:07;;;;;;;9.15;6.68;;;15.00;99.90;;;;;;5083548;28;20043;-74
2021/08/25 08:16:34;;;;;;;7.85;6.47;;;15.10;99.90;;;;;;5076721;28;20016;-74
2021/08/25 08:19:05;;;;;;;8.82;6.85;;;15.30;99.90;;;;;;5088980;28;20062;-74
2021/08/25 08:21:31;;;;;;;9.65;6.70;;;15.30;99.90;;;;;;5077819;28;20032;-74
2021/08/25 08:23:58;;;;;;;8.57;6.72;;;15.40;99.90;;;;;;5092115;28;20020;-74
2021/08/25 08:26:26;;;;;;;8.07;6.70;;;15.60;99.90;;;;;;5078406;28;20024;-74
2021/08/25 08:28:52;;;;;;;10.05;6.32;;;15.50;99.90;;;;;;5078340;28;20020;-74
2021/08/25 08:31:17;;;;;;;11.70;6.65;;;15.60;99.90;;;;;;5085295;28;20052;-74
2021/08/25 08:33:43;;;;;;;9.95;6.82;;;15.60;99.90;;;;;;5084175;28;20020;-74
2021/08/25 08:36:09;;;;;;;7.82;6.55;;;15.80;99.90;;;;;;5078349;28;20028;-74
2021/08/25 08:38:34;;;;;;;11.18;6.40;;;15.90;99.90;;;;;;5079513;28;20414;-74
2021/08/25 08:41:00;;;;;;;8.85;6.72;;;15.90;99.90;;;;;;5085193;28;20060;-74
2021/08/25 08:43:25;;;;;;;8.43;6.75;;;15.90;99.90;;;;;;5082818;28;20020;-74
2021/08/25 08:45:51;;;;;;;9.07;5.70;;;15.80;99.90;;;;;;5078330;28;20470;-74
2021/08/25 08:48:17;;;;;;;8.38;6.72;;;15.90;99.90;;;;;;5081387;28;20025;-74
2021/08/25 08:50:47;;;;;;;8.45;6.18;;;16.10;99.90;;;;;;5086537;28;20525;-74
2021/08/25 08:53:16;;;;;;;11.23;6.10;;;15.90;99.90;;;;;;5084376;28;20028;-74
2021/08/25 08:55:43;;;;;;;11.48;6.85;;;15.80;99.90;;;;;;5077904;28;20440;-74
2021/08/25 08:58:09;;;;;;;7.45;5.78;;;15.90;99.90;;;;;;5077169;28;20052;-74
2021/08/25 09:00:35;;;;;;;11.25;6.78;;;16.20;99.90;;;;;;5083883;28;20040;-74
2021/08/25 09:03:01;;;;;;;10.35;7.00;;;16.40;99.90;;;;;;5084506;28;20485;-75
2021/08/25 09:05:30;;;;;;;9.48;6.65;;;16.50;99.90;;;;;;5079204;28;20032;-74
2021/08/25 09:08:01;;;;;;;8.60;5.95;;;16.60;99.90;;;;;;5091549;28;20535;-74
2021/08/25 09:10:39;;;;;;;10.75;6.63;;;16.70;99.90;;;;;;5073612;28;20024;-74
2021/08/25 09:13:07;;;;;;;10.00;6.25;;;16.50;99.90;;;;;;5076457;28;20025;-73
2021/08/25 09:15:36;;;;;;;9.98;7.10;;;16.70;99.90;;;;;;5090078;28;20115;-73
2021/08/25 09:18:06;;;;;;;10.15;6.60;;;16.80;99.90;;;;;;5089055;28;20028;-73
2021/08/25 09:20:34;;;;;;;11.10;6.78;;;16.60;99.90;;;;;;5106612;28;20024;-73
2021/08/25 09:23:24;;;;;;;10.43;6.82;;;16.90;99.90;;;;;;5084522;28;20390;-74
2021/08/25 09:25:58;;;;;;;9.82;6.63;;;16.80;99.90;;;;;;5093116;28;20070;-74
2021/08/25 09:28:36;;;;;;;9.57;7.10;;;17.00;99.90;;;;;;5093851;28;20026;-73
2021/08/25 09:31:06;;;;;;;10.45;6.70;;;17.40;99.90;;;;;;5085196;27;20017;-74
2021/08/25 09:33:34;;;;;;;9.80;6.63;;;17.60;99.90;;;;;;5085085;28;20044;-73
2021/08/25 09:36:03;;;;;;;9.45;6.47;;;17.40;99.90;;;;;;5078556;28;20027;-74
2021/08/25 09:38:31;;;;;;;8.70;6.30;;;17.20;99.90;;;;;;5095177;28;20043;-74
2021/08/25 09:41:06;;;;;;;11.55;6.80;;;17.40;99.90;;;;;;5081356;28;20035;-74
2021/08/25 09:43:43;;;;;;;9.18;6.93;;;17.80;99.90;;;;;;5092449;28;20024;-74
2021/08/25 09:46:15;;;;;;;9.45;6.28;;;18.10;99.90;;;;;;5101993;28;20040;-74
2021/08/25 09:48:59;;;;;;;9.30;6.07;;;18.10;99.90;;;;;;5094011;28;20027;-74
2021/08/25 09:51:35;;;;;;;8.85;6.80;;;18.10;99.90;;;;;;5085160;28;20099;-73
2021/08/25 09:54:15;;;;;;;12.45;6.35;;;17.90;99.90;;;;;;5081653;28;20379;-75
2021/08/25 09:56:42;;;;;;;9.02;6.00;;;18.20;99.90;;;;;;5080831;28;20052;-74
2021/08/25 09:59:10;;;;;;;10.07;7.07;;;18.30;99.90;;;;;;5081861;28;20028;-74
2021/08/25 10:01:36;;;;;;;9.55;6.30;;;18.30;99.90;;;;;;5106555;28;20051;-74
2021/08/25 10:04:11;;;;;;;12.43;7.10;;;18.00;99.90;;;;;;5104218;28;20028;-74
2021/08/25 10:06:37;;;;;;;12.50;7.53;;;18.00;99.90;;;;;;5081059;28;20028;-73
2021/08/25 10:09:07;;;;;;;9.90;5.70;;;17.90;99.90;;;;;;5085939;28;20025;-74
2021/08/25 10:11:36;;;;;;;11.27;6.20;;;17.90;99.90;;;;;;5088120;28;20070;-74
2021/08/25 10:14:10;;;;;;;11.10;6.57;;;18.00;99.90;;;;;;5083618;28;20028;-74
2021/08/25 10:16:50;;;;;;;10.52;6.65;;;17.80;99.90;;;;;;5080825;28;20065;-73
2021/08/25 10:19:27;;;;;;;13.77;7.00;;;17.80;99.90;;;;;;5094503;28;20111;-73
2021/08/25 10:21:58;;;;;;;10.30;6.35;;;17.90;99.90;;;;;;5082091;28;20024;-74
2021/08/25 10:24:24;;;;;;;9.20;6.47;;;17.90;99.90;;;;;;5078899;28;20017;-74
2021/08/25 10:26:58;;;;;;;8.60;5.97;;;17.80;99.90;;;;;;5096262;28;20031;-74
2021/08/25 10:29:28;;;;;;;9.32;6.10;;;18.00;99.90;;;;;;5080455;28;20017;-73
2021/08/25 10:31:53;;;;;;;10.13;6.35;;;17.90;99.90;;;;;;5082651;28;20016;-73
2021/08/25 10:34:24;;;;;;;10.40;6.53;;;18.00;99.90;;;;;;5087066;28;20135;-74
2021/08/25 10:36:50;;;;;;;8.90;6.10;;;18.40;99.90;;;;;;5084679;28;20726;-74
2021/08/25 10:39:36;;;;;;;9.85;6.40;;;18.80;99.90;;;;;;5083482;28;20032;-73
2021/08/25 10:42:03;;;;;;;10.77;6.07;;;18.90;99.90;;;;;;5086046;28;20501;-74
2021/08/25 10:44:41;;;;;;;8.02;5.88;;;19.10;99.90;;;;;;5093930;28;20052;-73
2021/08/25 10:47:09;;;;;;;10.82;6.32;;;19.20;99.90;;;;;;5084243;28;20029;-73
2021/08/25 10:49:39;;;;;;;9.55;5.97;;;19.60;99.90;;;;;;5092139;28;20028;-73
2021/08/25 10:52:18;;;;;;;10.25;6.25;;;19.60;99.90;;;;;;5093655;28;20027;-73
2021/08/25 10:54:49;;;;;;;10.43;6.40;;;19.30;99.90;;;;;;5080082;28;20020;-73
2021/08/25 10:57:17;;;;;;;9.55;6.47;;;19.30;99.90;;;;;;5081693;28;20021;-73
2021/08/25 10:59:43;;;;;;;11.10;6.65;;;19.50;99.90;;;;;;5093374;28;20085;-73
2021/08/25 11:02:09;;;;;;;9.73;6.03;;;19.80;99.90;;;;;;5088945;28;20024;-73
2021/08/25 11:04:35;;;;;;;9.65;5.93;;;19.70;99.90;;;;;;5091837;28;20085;-73
2021/08/25 11:07:06;;;;;;;9.35;6.40;;;19.80;99.90;;;;;;5088203;28;20470;-73
2021/08/25 11:09:35;;;;;;;10.43;6.03;;;19.90;99.90;;;;;;5086145;28;20020;-73
2021/08/25 11:12:10;;;;;;;7.53;5.15;;;20.20;99.90;;;;;;5088216;28;20073;-73
2021/08/25 11:14:39;;;;;;;9.63;5.70;;;20.00;99.90;;;;;;5086230;28;20078;-77
2021/08/25 11:17:24;;;;;;;10.40;6.07;;;19.70;99.90;;;;;;5085512;28;20024;-73
2021/08/25 11:19:52;;;;;;;10.18;5.72;;;19.10;99.90;;;;;;5090738;28;20032;-73
2021/08/25 11:22:29;;;;;;;9.40;6.22;;;19.00;99.90;;;;;;5088618;28;20020;-74
2021/08/25 11:25:16;;;;;;;10.48;6.47;;;19.50;99.90;;;;;;5092519;28;20427;-73
2021/08/25 11:27:45;;;;;;;;;;;19.60;99.90;;;;;;5080059;28;20402;-74
2021/08/25 11:30:11;;;;;;;10.65;6.35;;;20.00;99.90;;;;;;5091813;28;19908;-73
2021/08/25 11:33:03;;;;;;;9.05;5.63;;;20.40;99.90;;;;;;5093048;28;20016;-74
2021/08/25 11:35:37;;;;;;;10.13;6.15;;;19.80;99.90;;;;;;5078383;28;20070;-74
2021/08/25 11:38:11;;;;;;;9.20;6.88;;;19.80;99.90;;;;;;5080134;28;20031;-74
2021/08/25 11:40:42;;;;;;;9.00;5.90;;;19.60;99.90;;;;;;5089718;28;20027;-74
2021/08/25 11:43:13;;;;;;;8.45;6.07;;;19.90;99.90;;;;;;5081574;28;20020;-74
2021/08/25 11:45:41;;;;;;;10.55;5.95;;;20.10;99.90;;;;;;5078850;28;20493;-74
2021/08/25 11:48:10;;;;;;;10.88;6.90;;;20.20;99.90;;;;;;5094379;28;20016;-74
2021/08/25 11:50:38;;;;;;;10.57;6.38;;;20.30;99.90;;;;;;5081597;28;20024;-74
2021/08/25 11:53:21;;;;;;;8.68;5.90;;;20.50;99.90;;;;;;5081507;28;20086;-74
2021/08/25 11:55:49;;;;;;;8.82;5.53;;;20.80;99.90;;;;;;5085899;28;20036;-73
2021/08/25 11:58:27;;;;;;;10.73;6.75;;;21.00;99.90;;;;;;5085440;28;20024;-74
2021/08/25 12:00:55;;;;;;;10.43;6.45;;;20.60;99.90;;;;;;5080331;28;20579;-74
2021/08/25 12:03:21;;;;;;;7.50;5.35;;;20.50;99.90;;;;;;5078748;28;20040;-73
2021/08/25 12:05:54;;;;;;;9.73;6.10;;;20.70;99.90;;;;;;5082431;28;20025;-74
2021/08/25 12:08:20;;;;;;;10.30;6.35;;;21.00;99.90;;;;;;5074333;28;20031;-74
2021/08/25 12:11:07;;;;;;;8.30;5.50;;;21.00;99.90;;;;;;5083606;28;20356;-73
2021/08/25 12:13:35;;;;;;;9.68;5.88;;;21.20;99.90;;;;;;5077048;28;20383;-73
2021/08/25 12:16:10;;;;;;;10.88;6.25;;;21.30;99.90;;;;;;5091877;28;20039;-73
2021/08/25 12:18:51;;;;;;;9.50;6.43;;;21.60;99.90;;;;;;5071927;28;20021;-73
2021/08/25 12:21:17;;;;;;;8.40;6.03;;;21.70;99.90;;;;;;5071667;28;20067;-73
2021/08/25 12:24:01;;;;;;;9.55;5.85;;;22.20;99.90;;;;;;5090816;28;20024;-73
2021/08/25 12:26:29;;;;;;;9.77;5.88;;;22.80;99.90;;;;;;5072450;28;20483;-73
2021/08/25 12:28:55;;;;;;;15.25;6.53;;;22.90;99.90;;;;;;5071763;28;20550;-73
2021/08/25 12:31:24;;;;;;;8.95;5.95;;;23.00;99.90;;;;;;5071636;28;20412;-73
2021/08/25 12:33:54;;;;;;;8.25;5.95;;;22.60;99.90;;;;;;5071491;28;20050;-73
2021/08/25 12:36:26;;;;;;;9.25;5.63;;;22.80;99.90;;;;;;5091578;28;20028;-73